Time;durP1;ratioP1;P1;durP2;ratioP2;P2;SDS_P1;SDS_P2;PMS_P1;PMS_P2;Temp;Humidity;BMP_temperature;BMP_pressure;BME280_temperature;BME280_humidity;BME280_pressure;Samples;Min_cycle;Max_cycle;Signal;HPM_P1;HPM_P2
2022/11/01 00:03:48;;;;;;;;;;;;;;;13.20;94.99;99106.38;10222483;23;19929;-78
2022/11/01 00:07:51;;;;;;;;;;;;;;;13.17;95.48;99102.03;10230087;23;20318;-77
2022/11/01 00:11:53;;;;;;;;;;;;;;;13.16;95.39;99094.25;10229238;23;20277;-77
2022/11/01 00:15:54;;;;;;;;;;;;;;;13.15;95.39;99100.38;10223307;23;19981;-77
2022/11/01 00:19:56;;;;;;;;;;;;;;;13.12;95.93;99098.69;10228080;23;20289;-77
2022/11/01 00:23:57;;;;;;;;;;;;;;;13.11;95.96;99098.72;10227804;23;19990;-77
2022/11/01 00:27:58;;;;;;;;;;;;;;;13.08;96.41;99099.59;10227547;23;20398;-77
2022/11/01 00:32:00;;;;;;;;;;;;;;;13.07;96.26;99095.28;10223167;23;20484;-77
2022/11/01 00:36:23;;;;;;;;;;;;;;;13.09;96.30;99092.63;10197517;23;19924;-78
2022/11/01 00:40:24;;;;;;;;;;;;;;;13.06;96.25;99093.56;10179021;23;19920;-78
2022/11/01 00:44:25;;;;;;;;;;;;;;;13.01;96.80;99098.88;10179361;23;20524;-78
2022/11/01 00:48:27;;;;;;;;;;;;;;;13.00;96.85;99099.75;10171113;23;20342;-78
2022/11/01 00:52:29;;;;;;;;;;;;;;;13.00;96.70;99102.38;10179391;23;20539;-77
2022/11/01 00:56:30;;;;;;;;;;;;;;;12.99;97.28;99098.03;10179309;23;19925;-78
2022/11/01 01:00:31;;;;;;;;;;;;;;;13.00;97.08;99104.97;10197219;23;20496;-78
2022/11/01 01:04:33;;;;;;;;;;;;;;;13.00;96.96;99101.50;10179486;23;20014;-78
2022/11/01 01:08:34;;;;;;;;;;;;;;;12.97;96.92;99102.44;10178369;23;20292;-78
2022/11/01 01:12:35;;;;;;;;;;;;;;;12.98;97.56;99098.06;10179741;23;19924;-78
2022/11/01 01:16:37;;;;;;;;;;;;;;;12.98;97.12;99088.50;10196791;23;19999;-78
2022/11/01 01:20:38;;;;;;;;;;;;;;;12.99;98.13;99090.22;10178377;23;19924;-78
2022/11/01 01:24:44;;;;;;;;;;;;;;;13.02;98.32;99090.16;10179285;23;19928;-78
2022/11/01 01:28:45;;;;;;;;;;;;;;;13.10;99.31;99096.97;10178560;23;19940;-78
2022/11/01 01:32:47;;;;;;;;;;;;;;;13.14;98.69;99101.25;10199974;23;19995;-78
2022/11/01 01:36:48;;;;;;;;;;;;;;;13.17;99.33;99119.44;10181929;23;19990;-78
2022/11/01 01:40:49;;;;;;;;;;;;;;;13.19;99.62;99121.16;10183736;23;20217;-79
2022/11/01 01:44:54;;;;;;;;;;;;;;;13.22;99.52;99133.28;10185263;23;19932;-80
2022/11/01 01:48:57;;;;;;;;;;;;;;;13.26;99.58;99127.09;10151931;23;20604;-80
2022/11/01 01:53:04;;;;;;;;;;;;;;;13.36;100.00;99128.66;10202533;23;19921;-80
2022/11/01 01:57:06;;;;;;;;;;;;;;;13.52;100.00;99129.19;10225611;23;19932;-79
2022/11/01 02:01:08;;;;;;;;;;;;;;;13.72;100.00;99127.03;10234392;23;19904;-78
2022/11/01 02:05:18;;;;;;;;;;;;;;;13.90;100.00;99133.59;10239769;23;19928;-78
2022/11/01 02:09:19;;;;;;;;;;;;;;;14.03;100.00;99135.06;10239781;23;19904;-76
2022/11/01 02:13:22;;;;;;;;;;;;;;;14.12;100.00;99123.53;10239845;23;19924;-77
2022/11/01 02:17:29;;;;;;;;;;;;;;;14.19;100.00;99132.97;10239895;23;19928;-77
2022/11/01 02:21:42;;;;;;;;;;;;;;;14.26;100.00;99134.53;10239858;23;19905;-77
2022/11/01 02:25:58;;;;;;;;;;;;;;;14.30;100.00;99133.53;10239872;23;19904;-77
2022/11/01 02:30:15;;;;;;;;;;;;;;;14.35;100.00;99131.69;10239677;23;19912;-77
2022/11/01 02:34:22;;;;;;;;;;;;;;;14.38;100.00;99131.63;10237947;23;19905;-78
2022/11/01 02:38:32;;;;;;;;;;;;;;;14.40;100.00;99126.38;10238926;23;19924;-78
2022/11/01 02:42:48;;;;;;;;;;;;;;;14.42;100.00;99133.25;10239464;23;19911;-77
2022/11/01 02:47:00;;;;;;;;;;;;;;;14.42;100.00;99133.25;10238986;23;19936;-77
2022/11/01 02:51:01;;;;;;;;;;;;;;;14.46;100.00;99147.13;10239484;23;19928;-77
2022/11/01 02:55:25;;;;;;;;;;;;;;;14.48;100.00;99147.97;10238874;23;19904;-78
2022/11/01 02:59:28;;;;;;;;;;;;;;;14.50;100.00;99156.63;10239373;23;19944;-77
2022/11/01 03:03:31;;;;;;;;;;;;;;;14.50;100.00;99154.84;10262113;23;19904;-77
2022/11/01 03:07:33;;;;;;;;;;;;;;;14.52;100.00;99150.44;10238950;23;19905;-77
2022/11/01 03:11:41;;;;;;;;;;;;;;;14.56;100.00;99139.94;10239040;23;19904;-77
2022/11/01 03:15:50;;;;;;;;;;;;;;;14.56;100.00;99146.03;10238554;23;19905;-78
2022/11/01 03:19:57;;;;;;;;;;;;;;;14.56;100.00;99159.09;10239032;23;19904;-78
2022/11/01 03:24:07;;;;;;;;;;;;;;;14.56;100.00;99153.88;10239030;23;19904;-78
2022/11/01 03:28:19;;;;;;;;;;;;;;;14.56;100.00;99153.00;10238203;23;19904;-78
2022/11/01 03:32:22;;;;;;;;;;;;;;;14.58;100.00;99157.31;10238651;23;20841;-78
2022/11/01 03:36:26;;;;;;;;;;;;;;;14.59;100.00;99166.00;10238023;23;19912;-78
2022/11/01 03:40:29;;;;;;;;;;;;;;;14.60;100.00;99181.63;10238880;23;19904;-78
2022/11/01 03:44:37;;;;;;;;;;;;;;;14.61;100.00;99183.34;10238101;23;19905;-78
2022/11/01 03:48:39;;;;;;;;;;;;;;;14.62;100.00;99192.06;10237777;23;19911;-78
2022/11/01 03:52:40;;;;;;;;;;;;;;;14.64;100.00;99198.09;10238188;23;19904;-78
2022/11/01 03:56:42;;;;;;;;;;;;;;;14.66;100.00;99205.00;10238771;23;19905;-79
2022/11/01 04:00:44;;;;;;;;;;;;;;;14.67;100.00;99206.72;10238369;23;19911;-78
2022/11/01 04:04:45;;;;;;;;;;;;;;;14.70;100.00;99214.47;10237680;23;19933;-78
2022/11/01 04:08:48;;;;;;;;;;;;;;;14.69;100.00;99204.91;10238143;23;19905;-78
2022/11/01 04:12:49;;;;;;;;;;;;;;;14.67;100.00;99211.94;10238225;23;19904;-78
2022/11/01 04:21:13;;;;;;;;;;;;;;;14.67;100.00;99221.53;10237899;23;19928;-79
2022/11/01 04:25:15;;;;;;;;;;;;;;;14.67;100.00;99221.53;10238010;23;19905;-79
2022/11/01 04:29:16;;;;;;;;;;;;;;;14.66;100.00;99232.88;10237234;23;19916;-79
2022/11/01 04:33:18;;;;;;;;;;;;;;;14.62;100.00;99226.88;10236163;23;19905;-78
2022/11/01 04:37:19;;;;;;;;;;;;;;;14.61;100.00;99246.06;10237373;23;19936;-78
2022/11/01 04:41:21;;;;;;;;;;;;;;;14.61;100.00;99253.06;10237636;23;19912;-78
2022/11/01 04:45:23;;;;;;;;;;;;;;;14.59;100.00;99247.88;10237249;23;19905;-78
2022/11/01 04:49:25;;;;;;;;;;;;;;;14.57;100.00;99236.59;10237625;23;19932;-77
2022/11/01 04:53:26;;;;;;;;;;;;;;;14.56;100.00;99245.31;10237411;23;19912;-78
2022/11/01 04:57:27;;;;;;;;;;;;;;;14.52;100.00;99246.25;10237158;23;19929;-79
2022/11/01 05:01:29;;;;;;;;;;;;;;;14.53;100.00;99250.59;10236821;23;19927;-78
2022/11/01 05:05:31;;;;;;;;;;;;;;;14.53;100.00;99263.66;10237401;23;19935;-78
2022/11/01 05:09:32;;;;;;;;;;;;;;;14.51;100.00;99271.53;10237134;23;19936;-78
2022/11/01 05:13:34;;;;;;;;;;;;;;;14.52;100.00;99272.38;10237255;23;19928;-78
2022/11/01 05:17:39;;;;;;;;;;;;;;;14.51;100.00;99270.66;10236655;23;19988;-78
2022/11/01 05:21:41;;;;;;;;;;;;;;;14.49;100.00;99285.53;10236631;23;19905;-78
2022/11/01 05:25:42;;;;;;;;;;;;;;;14.50;100.00;99295.09;10236770;23;19948;-78
2022/11/01 05:29:43;;;;;;;;;;;;;;;14.51;100.00;99288.97;10211736;23;19905;-78
2022/11/01 05:33:45;;;;;;;;;;;;;;;14.53;100.00;99302.84;10234794;23;19905;-79
2022/11/01 05:37:47;;;;;;;;;;;;;;;14.56;100.00;99294.13;10236593;23;19920;-79
2022/11/01 05:41:48;;;;;;;;;;;;;;;14.57;100.00;99296.69;10207626;23;19928;-79
2022/11/01 05:45:50;;;;;;;;;;;;;;;14.59;100.00;99294.03;10235534;23;19928;-78
2022/11/01 05:49:51;;;;;;;;;;;;;;;14.61;100.00;99305.31;10253029;23;19924;-79
2022/11/01 05:53:53;;;;;;;;;;;;;;;14.65;100.00;99314.81;10236696;23;19905;-79
2022/11/01 05:57:57;;;;;;;;;;;;;;;14.66;100.00;99311.28;10236569;23;19908;-79
2022/11/01 06:01:59;;;;;;;;;;;;;;;14.67;100.00;99307.78;10235519;23;19916;-80
2022/11/01 06:06:01;;;;;;;;;;;;;;;14.70;100.00;99315.53;10235935;23;19904;-79
2022/11/01 06:10:04;;;;;;;;;;;;;;;14.69;100.00;99319.91;10211210;23;19912;-80
2022/11/01 06:14:05;;;;;;;;;;;;;;;14.70;100.00;99347.78;10234168;23;19909;-79
2022/11/01 06:18:07;;;;;;;;;;;;;;;14.72;100.00;99347.72;10234175;23;19925;-80
2022/11/01 06:22:08;;;;;;;;;;;;;;;14.70;100.00;99355.59;10257392;23;19927;-79
2022/11/01 06:26:10;;;;;;;;;;;;;;;14.72;100.00;99363.41;10224320;23;19921;-79
2022/11/01 06:30:11;;;;;;;;;;;;;;;14.72;100.00;99366.03;10233790;23;19908;-79
2022/11/01 06:34:12;;;;;;;;;;;;;;;14.68;100.00;99370.47;10199603;23;19944;-76
2022/11/01 06:38:14;;;;;;;;;;;;;;;14.66;100.00;99382.72;10181874;23;19972;-76
2022/11/01 06:42:15;;;;;;;;;;;;;;;14.62;100.00;99388.91;10184639;23;19921;-76
2022/11/01 06:46:17;;;;;;;;;;;;;;;14.59;100.00;99403.78;10181910;23;20316;-76
2022/11/01 06:50:18;;;;;;;;;;;;;;;14.55;100.00;99417.81;10176679;23;19924;-76
2022/11/01 06:54:20;;;;;;;;;;;;;;;14.53;100.00;99415.22;10179928;23;19945;-76
2022/11/01 06:58:21;;;;;;;;;;;;;;;14.50;100.00;99444.88;10156275;23;19924;-76
2022/11/01 07:02:24;;;;;;;;;;;;;;;14.40;100.00;99451.16;10179264;23;19976;-76
2022/11/01 07:06:30;;;;;;;;;;;;;;;14.28;98.12;99459.19;10184884;23;19932;-77
2022/11/01 07:10:31;;;;;;;;;;;;;;;14.15;95.99;99470.75;10202325;23;20015;-77
2022/11/01 07:14:32;;;;;;;;;;;;;;;14.00;94.12;99479.69;10180408;23;20004;-77
2022/11/01 07:18:34;;;;;;;;;;;;;;;13.84;92.72;99493.91;10171297;23;19925;-77
2022/11/01 07:22:35;;;;;;;;;;;;;;;13.71;91.74;99500.22;10178948;23;19952;-76
2022/11/01 07:26:37;;;;;;;;;;;;;;;13.56;90.42;99516.94;10177044;23;19928;-77
2022/11/01 07:30:39;;;;;;;;;;;;;;;13.41;86.27;99525.84;10170027;23;20382;-78
2022/11/01 07:34:40;;;;;;;;;;;;;;;13.34;84.80;99539.00;10176989;23;19991;-77
2022/11/01 07:38:41;;;;;;;;;;;;;;;13.25;85.58;99524.31;10176826;23;19948;-77
2022/11/01 07:42:44;;;;;;;;;;;;;;;13.17;85.79;99529.63;10176989;23;19925;-77
2022/11/01 07:46:45;;;;;;;;;;;;;;;13.01;85.27;99539.38;10194745;23;19925;-78
2022/11/01 07:50:46;;;;;;;;;;;;;;;12.91;85.64;99555.13;10179833;23;19988;-78
2022/11/01 07:54:48;;;;;;;;;;;;;;;12.91;85.92;99557.72;10154909;23;19960;-78
2022/11/01 07:58:49;;;;;;;;;;;;;;;12.88;83.23;99550.81;10154192;23;20486;-79
2022/11/01 08:02:50;;;;;;;;;;;;;;;12.91;83.35;99557.72;10197567;23;19924;-79
2022/11/01 08:06:52;;;;;;;;;;;;;;;12.93;83.97;99562.06;10178872;23;19924;-79
2022/11/01 08:10:53;;;;;;;;;;;;;;;13.02;83.39;99563.69;10178033;23;20308;-78
2022/11/01 08:14:55;;;;;;;;;;;;;;;13.18;82.86;99580.91;10154580;23;19924;-78
2022/11/01 08:18:56;;;;;;;;;;;;;;;13.34;83.04;99581.59;10171958;23;19929;-77
2022/11/01 08:22:58;;;;;;;;;;;;;;;13.46;83.41;99593.59;10151598;23;19929;-77
2022/11/01 08:27:02;;;;;;;;;;;;;;;13.53;82.48;99601.34;10154475;23;19924;-78
2022/11/01 08:31:07;;;;;;;;;;;;;;;13.71;82.94;99599.38;10171188;23;20220;-78
2022/11/01 08:35:10;;;;;;;;;;;;;;;13.85;81.41;99600.06;10176749;23;20007;-79
2022/11/01 08:39:12;;;;;;;;;;;;;;;13.94;78.09;99607.72;10176118;23;20552;-77
2022/11/01 08:43:13;;;;;;;;;;;;;;;14.27;78.24;99595.91;10175435;23;19987;-78
2022/11/01 08:47:14;;;;;;;;;;;;;;;14.54;75.67;99620.75;10171420;23;20019;-79
2022/11/01 08:51:23;;;;;;;;;;;;;;;14.88;74.91;99622.78;10153815;23;20339;-79
2022/11/01 08:55:24;;;;;;;;;;;;;;;14.93;71.74;99636.66;10177432;23;19951;-79
2022/11/01 08:59:27;;;;;;;;;;;;;;;14.88;72.58;99636.69;10176228;23;19928;-78
2022/11/01 09:03:28;;;;;;;;;;;;;;;14.86;70.82;99640.25;10171028;23;19932;-78
2022/11/01 09:07:29;;;;;;;;;;;;;;;15.15;72.92;99650.19;10176411;23;20019;-79
2022/11/01 09:11:31;;;;;;;;;;;;;;;15.23;71.16;99650.88;10176472;23;19925;-79
2022/11/01 09:15:36;;;;;;;;;;;;;;;15.27;69.03;99648.19;10172140;23;20011;-79
2022/11/01 09:19:38;;;;;;;;;;;;;;;15.26;69.00;99658.66;10176959;23;20221;-79
2022/11/01 09:23:40;;;;;;;;;;;;;;;15.36;69.53;99661.09;10176690;23;20003;-79
2022/11/01 09:27:41;;;;;;;;;;;;;;;15.55;69.77;99658.97;10178297;23;20308;-79
2022/11/01 09:31:44;;;;;;;;;;;;;;;15.40;67.54;99652.28;10171504;23;19956;-79
2022/11/01 09:35:48;;;;;;;;;;;;;;;15.47;67.78;99650.41;10176787;23;19931;-79
2022/11/01 09:39:57;;;;;;;;;;;;;;;15.55;64.60;99661.59;10178357;23;19962;-79
2022/11/01 09:44:00;;;;;;;;;;;;;;;15.40;62.38;99669.72;10173908;23;19983;-77
2022/11/01 09:48:04;;;;;;;;;;;;;;;15.24;63.47;99663.06;10170125;23;19984;-76
2022/11/01 09:52:06;;;;;;;;;;;;;;;15.20;63.40;99670.13;10174254;23;19924;-76
2022/11/01 09:56:17;;;;;;;;;;;;;;;15.35;64.49;99669.84;10175832;23;19925;-76
2022/11/01 10:00:19;;;;;;;;;;;;;;;15.26;62.56;99661.28;10194626;23;19928;-76
2022/11/01 10:04:23;;;;;;;;;;;;;;;15.27;61.96;99669.13;10175933;23;20332;-76
2022/11/01 10:08:36;;;;;;;;;;;;;;;15.32;62.52;99663.81;10176374;23;20197;-76
2022/11/01 10:12:40;;;;;;;;;;;;;;;15.44;64.02;99676.66;10176219;23;20011;-76
2022/11/01 10:16:50;;;;;;;;;;;;;;;15.48;63.51;99667.00;10169965;23;19925;-76
2022/11/01 10:20:54;;;;;;;;;;;;;;;15.24;58.90;99671.78;10172995;23;19920;-76
2022/11/01 10:25:03;;;;;;;;;;;;;;;15.13;59.16;99680.75;10176842;23;19929;-76
2022/11/01 10:29:12;;;;;;;;;;;;;;;15.11;60.36;99672.91;10200497;23;19924;-77
2022/11/01 10:33:21;;;;;;;;;;;;;;;15.19;60.98;99683.22;10168145;23;19976;-77
2022/11/01 10:37:25;;;;;;;;;;;;;;;15.30;60.56;99689.13;10200608;23;19924;-77
2022/11/01 10:41:35;;;;;;;;;;;;;;;15.27;59.74;99671.75;10175366;23;19924;-77
2022/11/01 10:45:37;;;;;;;;;;;;;;;15.23;57.89;99677.91;10168076;23;19961;-77
2022/11/01 10:49:55;;;;;;;;;;;;;;;15.32;58.12;99669.91;10175990;23;20019;-77
2022/11/01 10:54:16;;;;;;;;;;;;;;;15.24;56.23;99666.56;10175849;23;19975;-77
2022/11/01 10:58:22;;;;;;;;;;;;;;;15.17;56.19;99674.56;10200270;23;19999;-78
2022/11/01 11:02:44;;;;;;;;;;;;;;;15.13;55.96;99681.59;10171193;23;20027;-77
2022/11/01 11:06:45;;;;;;;;;;;;;;;15.14;55.63;99679.84;10177560;23;20044;-77
2022/11/01 11:10:47;;;;;;;;;;;;;;;15.24;55.80;99678.75;10178120;23;19925;-77
2022/11/01 11:14:51;;;;;;;;;;;;;;;15.28;54.83;99678.69;10177500;23;19928;-77
2022/11/01 11:19:00;;;;;;;;;;;;;;;15.35;53.66;99675.06;10169775;23;19925;-77
2022/11/01 11:23:02;;;;;;;;;;;;;;;15.42;55.46;99678.41;10176547;23;19987;-78
2022/11/01 11:27:16;;;;;;;;;;;;;;;15.54;55.75;99677.31;10177224;23;19954;-77
2022/11/01 11:31:25;;;;;;;;;;;;;;;15.43;55.71;99681.00;10194099;23;19927;-77
2022/11/01 11:35:29;;;;;;;;;;;;;;;15.40;56.30;99678.44;10176255;23;19928;-77
2022/11/01 11:39:31;;;;;;;;;;;;;;;15.50;57.77;99679.16;10175905;23;19921;-77
2022/11/01 11:43:36;;;;;;;;;;;;;;;15.57;55.64;99675.50;10177246;23;19929;-77
2022/11/01 11:47:38;;;;;;;;;;;;;;;15.55;55.93;99673.81;10170263;23;19987;-77
2022/11/01 11:51:40;;;;;;;;;;;;;;;15.60;54.84;99679.84;10177718;23;19924;-77
2022/11/01 11:55:45;;;;;;;;;;;;;;;15.52;54.81;99681.72;10152638;23;19925;-77
2022/11/01 11:59:50;;;;;;;;;;;;;;;15.56;54.00;99681.63;10152129;23;19928;-77
2022/11/01 12:03:51;;;;;;;;;;;;;;;15.61;54.93;99686.78;10167183;23;19995;-77
2022/11/01 12:07:53;;;;;;;;;;;;;;;15.58;56.15;99681.59;10176277;23;20015;-77
2022/11/01 12:11:55;;;;;;;;;;;;;;;15.71;57.25;99683.97;10176257;23;20606;-77
2022/11/01 12:16:05;;;;;;;;;;;;;;;15.74;55.90;99685.66;10166895;23;20007;-77
2022/11/01 12:20:14;;;;;;;;;;;;;;;15.82;55.64;99680.28;10172800;23;19935;-78
2022/11/01 12:24:25;;;;;;;;;;;;;;;15.88;55.31;99673.16;10176882;23;19921;-78
2022/11/01 12:28:30;;;;;;;;;;;;;;;15.71;52.82;99670.88;10178067;23;20015;-78
2022/11/01 12:32:37;;;;;;;;;;;;;;;15.67;52.50;99665.75;10171525;23;19920;-78
2022/11/01 12:36:47;;;;;;;;;;;;;;;15.56;51.62;99665.06;10171490;23;19928;-77
2022/11/01 12:40:51;;;;;;;;;;;;;;;15.55;53.85;99677.28;10172829;23;19960;-77
2022/11/01 12:44:56;;;;;;;;;;;;;;;15.61;54.83;99673.72;10174392;23;20252;-78
2022/11/01 12:49:20;;;;;;;;;;;;;;;15.61;53.54;99671.94;10169702;23;19921;-76
2022/11/01 12:53:25;;;;;;;;;;;;;;;15.57;53.52;99672.03;10164432;23;19925;-76
2022/11/01 12:57:27;;;;;;;;;;;;;;;15.65;54.65;99683.25;10172282;23;19956;-76
2022/11/01 13:01:47;;;;;;;;;;;;;;;15.64;53.68;99679.78;10172315;23;19924;-80
2022/11/01 13:06:38;;;;;;;;;;;;;;;15.62;54.58;99676.31;10199635;23;19924;-80
2022/11/01 13:59:29;;;;;;;;;;;;;;;15.26;53.66;99661.28;10268221;22;20545;-78
2022/11/01 14:04:13;;;;;;;;;;;;;;;15.24;53.91;99660.44;10243488;23;20629;-79
2022/11/01 14:08:48;;;;;;;;;;;;;;;15.18;53.75;99653.59;10180110;23;19930;-79
2022/11/01 14:13:11;;;;;;;;;;;;;;;15.20;54.90;99666.63;10282265;23;19924;-79
2022/11/01 14:17:32;;;;;;;;;;;;;;;15.17;54.70;99659.72;10276437;23;20235;-79
2022/11/01 14:21:48;;;;;;;;;;;;;;;15.13;54.65;99660.69;10287541;23;19928;-79
2022/11/01 14:30:58;;;;;;;;;;;;;;;15.03;55.62;99664.34;10236075;23;19923;-79
2022/11/01 14:35:18;;;;;;;;;;;;;;;14.97;55.59;99670.53;10276081;23;20279;-79
2022/11/01 14:39:47;;;;;;;;;;;;;;;14.94;55.30;99669.75;10256737;23;19923;-79
2022/11/01 14:44:10;;;;;;;;;;;;;;;14.88;54.76;99675.91;10078209;23;19933;-79
2022/11/01 14:48:41;;;;;;;;;;;;;;;14.81;54.33;99677.78;10073237;23;19933;-79
2022/11/01 14:53:19;;;;;;;;;;;;;;;14.76;56.30;99677.00;10056061;23;19929;-79
2022/11/01 14:57:33;;;;;;;;;;;;;;;14.70;56.43;99677.09;10077400;23;19926;-79
2022/11/01 15:07:42;;;;;;;;;;;;;;;14.50;57.08;99673.94;10084052;23;19925;-79
2022/11/01 15:16:52;;;;;;;;;;;;;;;14.28;58.04;99668.16;10069107;23;19925;-79
2022/11/01 15:21:29;;;;;;;;;;;;;;;14.17;59.13;99672.66;10242310;23;19985;-79
2022/11/01 15:26:28;;;;;;;;;;;;;;;13.96;58.79;99678.19;10278975;23;20208;-79
2022/11/01 15:30:33;;;;;;;;;;;;;;;13.85;59.58;99679.22;10274612;23;20543;-79
2022/11/01 15:34:50;;;;;;;;;;;;;;;13.74;59.56;99686.31;10233707;23;19970;-79
2022/11/01 15:39:42;;;;;;;;;;;;;;;13.63;60.11;99680.34;10269749;23;19973;-79
2022/11/01 15:43:53;;;;;;;;;;;;;;;13.54;59.54;99685.69;10282613;23;19924;-79
2022/11/01 15:48:11;;;;;;;;;;;;;;;13.37;62.96;99685.88;10240795;23;20187;-79
2022/11/01 15:52:32;;;;;;;;;;;;;;;13.23;62.36;99685.16;10287442;23;19923;-79
2022/11/01 15:57:16;;;;;;;;;;;;;;;13.06;63.97;99677.47;10253798;23;19982;-79
2022/11/01 16:01:59;;;;;;;;;;;;;;;12.93;64.81;99689.78;10265855;23;19934;-79
2022/11/01 16:06:38;;;;;;;;;;;;;;;12.79;66.55;99689.03;10282958;23;19981;-79
2022/11/01 16:11:46;;;;;;;;;;;;;;;12.54;68.95;99687.47;10251648;23;19928;-79
2022/11/01 16:16:11;;;;;;;;;;;;;;;12.29;70.99;99679.00;10282081;23;19924;-80
2022/11/01 16:20:29;;;;;;;;;;;;;;;12.06;72.93;99676.53;10288169;23;20003;-81
2022/11/01 16:24:31;;;;;;;;;;;;;;;11.85;73.49;99690.53;10266642;23;20257;-81
2022/11/01 16:28:39;;;;;;;;;;;;;;;11.66;74.43;99701.81;10261653;22;19963;-78
2022/11/01 16:32:42;;;;;;;;;;;;;;;11.50;75.84;99711.44;10257228;23;19924;-83
2022/11/01 16:36:44;;;;;;;;;;;;;;;11.32;76.73;99707.16;10287307;23;20303;-79
2022/11/01 16:40:46;;;;;;;;;;;;;;;11.21;77.17;99721.91;10257090;23;19939;-80
2022/11/01 16:44:49;;;;;;;;;;;;;;;11.09;77.94;99722.78;10258135;23;19923;-81
2022/11/01 16:48:57;;;;;;;;;;;;;;;10.99;77.09;99728.00;10252104;23;19985;-80
2022/11/01 16:52:59;;;;;;;;;;;;;;;10.76;77.87;99727.97;10290897;23;19930;-80
2022/11/01 16:57:01;;;;;;;;;;;;;;;10.61;78.81;99731.47;10238678;23;19973;-80
2022/11/01 17:01:02;;;;;;;;;;;;;;;10.50;79.71;99733.16;10283468;23;20017;-79
2022/11/01 17:05:17;;;;;;;;;;;;;;;10.39;80.28;99733.16;10283160;23;19999;-79
2022/11/01 17:09:21;;;;;;;;;;;;;;;10.31;80.93;99737.47;10281835;23;19935;-80
2022/11/01 17:13:23;;;;;;;;;;;;;;;10.23;80.67;99744.34;10257925;23;19999;-79
2022/11/01 17:17:26;;;;;;;;;;;;;;;10.14;80.44;99742.56;10276436;23;19924;-81
2022/11/01 17:21:30;;;;;;;;;;;;;;;10.05;80.66;99739.94;10263067;23;19928;-88
2022/11/01 17:25:32;;;;;;;;;;;;;;;9.94;81.78;99750.28;10282754;23;20347;-77
2022/11/01 17:29:33;;;;;;;;;;;;;;;9.85;82.34;99749.38;10283990;23;19951;-84
2022/11/01 17:33:35;;;;;;;;;;;;;;;9.76;82.59;99746.75;10228697;23;20667;-83
2022/11/01 17:37:39;;;;;;;;;;;;;;;9.66;82.59;99751.03;10284120;23;19920;-80
2022/11/01 17:41:40;;;;;;;;;;;;;;;9.53;83.52;99749.25;10237718;23;19925;-84
2022/11/01 17:45:44;;;;;;;;;;;;;;;9.46;83.69;99755.22;10255579;23;19928;-83
2022/11/01 17:49:48;;;;;;;;;;;;;;;9.43;83.18;99752.63;10282063;23;20357;-87
2022/11/01 17:53:51;;;;;;;;;;;;;;;9.32;83.62;99752.56;10260908;23;20597;-81
2022/11/01 17:57:53;;;;;;;;;;;;;;;9.28;83.53;99753.41;10288956;22;19923;-82
2022/11/01 18:01:56;;;;;;;;;;;;;;;9.20;83.78;99748.19;10256187;23;20390;-83
2022/11/01 18:06:00;;;;;;;;;;;;;;;9.11;84.61;99753.28;10263402;23;19977;-84
2022/11/01 18:10:12;;;;;;;;;;;;;;;9.02;85.46;99754.09;10306397;23;19920;-81
2022/11/01 18:14:17;;;;;;;;;;;;;;;8.93;85.11;99760.91;10235056;23;19923;-81
2022/11/01 18:18:20;;;;;;;;;;;;;;;8.80;85.38;99759.97;10264077;23;19955;-81
2022/11/01 18:22:39;;;;;;;;;;;;;;;8.72;86.63;99756.41;10277470;23;20299;-83
2022/11/01 18:26:43;;;;;;;;;;;;;;;8.68;86.94;99752.94;10261191;23;19923;-81
2022/11/01 18:30:51;;;;;;;;;;;;;;;8.61;86.68;99747.69;10252041;23;20015;-79
2022/11/01 18:34:58;;;;;;;;;;;;;;;8.55;87.17;99750.22;10293020;23;19924;-82
2022/11/01 18:39:00;;;;;;;;;;;;;;;8.43;86.84;99748.38;10238955;23;20720;-81
2022/11/01 18:43:06;;;;;;;;;;;;;;;8.35;87.81;99752.63;10232857;23;19920;-80
2022/11/01 18:47:18;;;;;;;;;;;;;;;8.28;88.43;99746.50;10251366;23;20506;-80
2022/11/01 18:51:25;;;;;;;;;;;;;;;8.21;88.59;99743.81;10256950;23;19924;-80
2022/11/01 18:55:27;;;;;;;;;;;;;;;8.18;88.74;99739.47;10257271;23;20296;-81
2022/11/01 18:59:30;;;;;;;;;;;;;;;8.09;89.40;99749.72;10282578;23;19924;-80
2022/11/01 19:03:41;;;;;;;;;;;;;;;8.05;89.38;99753.09;10281524;23;19954;-80
2022/11/01 19:07:55;;;;;;;;;;;;;;;8.02;89.61;99756.53;10255452;23;20592;-80
2022/11/01 19:12:28;;;;;;;;;;;;;;;7.99;89.98;99758.22;10283496;23;20226;-80
2022/11/01 19:16:30;;;;;;;;;;;;;;;7.89;90.06;99750.34;10275441;23;20350;-80
2022/11/01 19:20:33;;;;;;;;;;;;;;;7.83;90.37;99757.16;10274515;23;19973;-80
2022/11/01 19:24:37;;;;;;;;;;;;;;;7.79;90.83;99752.81;10255088;23;20003;-80
2022/11/01 19:28:39;;;;;;;;;;;;;;;7.74;90.75;99750.16;10254553;23;19923;-80
2022/11/01 19:37:52;;;;;;;;;;;;;;;7.64;91.27;99747.44;10265039;23;19924;-81
2022/11/01 19:48:14;;;;;;;;;;;;;;;7.50;91.86;99768.78;10272566;23;19927;-81
2022/11/01 19:53:39;;;;;;;;;;;;;;;7.49;91.57;99772.22;10290961;23;19931;-81
2022/11/01 19:58:31;;;;;;;;;;;;;;;7.46;91.76;99763.56;10290310;23;19920;-80
2022/11/01 20:02:59;;;;;;;;;;;;;;;7.42;92.01;99764.38;10290893;23;19987;-82
2022/11/01 20:07:18;;;;;;;;;;;;;;;7.39;92.48;99764.34;10307051;23;19920;-81
2022/11/01 20:11:20;;;;;;;;;;;;;;;7.38;92.49;99772.94;10273107;23;19927;-82
2022/11/01 20:25:49;;;;;;;;;;;;;;;7.64;92.95;99783.63;10352741;23;20367;-83
2022/11/01 20:30:07;;;;;;;;;;;;;;;7.51;92.46;99785.16;10265561;23;19935;-82
2022/11/01 20:34:09;;;;;;;;;;;;;;;7.47;92.79;99784.25;10284938;23;19931;-83
2022/11/01 20:38:10;;;;;;;;;;;;;;;7.49;93.10;99785.13;10249071;23;19931;-82
2022/11/01 20:42:14;;;;;;;;;;;;;;;7.66;93.70;99787.94;10250023;23;19920;-82
2022/11/01 20:46:16;;;;;;;;;;;;;;;7.69;93.39;99800.03;10260776;23;19920;-82
2022/11/01 20:50:17;;;;;;;;;;;;;;;7.75;93.66;99803.59;10283646;23;19985;-81
2022/11/01 20:54:24;;;;;;;;;;;;;;;7.84;93.55;99803.72;10291261;23;19927;-82
2022/11/01 20:58:41;;;;;;;;;;;;;;;7.93;93.40;99802.97;10291132;23;19920;-82
2022/11/01 21:02:49;;;;;;;;;;;;;;;7.95;92.85;99797.81;10232536;23;19988;-82
2022/11/01 21:07:02;;;;;;;;;;;;;;;7.96;92.90;99800.41;10279335;23;19928;-81
2022/11/01 21:11:21;;;;;;;;;;;;;;;7.96;92.00;99799.56;10281075;23;20272;-81
2022/11/01 21:15:27;;;;;;;;;;;;;;;7.97;91.88;99802.16;10229688;23;19959;-82
2022/11/01 21:19:28;;;;;;;;;;;;;;;7.97;91.42;99801.28;10229512;23;20015;-81
2022/11/01 21:23:34;;;;;;;;;;;;;;;7.96;91.49;99803.00;10255787;23;19950;-83
2022/11/01 21:27:36;;;;;;;;;;;;;;;7.98;91.63;99813.38;10255705;23;20011;-82
2022/11/01 21:31:37;;;;;;;;;;;;;;;8.01;91.16;99810.81;10248287;23;19932;-81
2022/11/01 21:35:40;;;;;;;;;;;;;;;8.00;91.23;99812.53;10281228;23;19924;-81
2022/11/01 21:39:44;;;;;;;;;;;;;;;8.03;91.57;99809.13;10257963;23;20680;-82
2022/11/01 21:43:50;;;;;;;;;;;;;;;8.03;91.25;99812.56;10282377;23;20414;-80
2022/11/01 21:47:52;;;;;;;;;;;;;;;8.03;90.95;99804.81;10250499;23;19969;-79
2022/11/01 21:51:56;;;;;;;;;;;;;;;8.04;90.59;99803.97;10256712;23;19930;-78
2022/11/01 21:55:57;;;;;;;;;;;;;;;7.99;90.60;99802.16;10283143;23;19931;-81
2022/11/01 21:59:59;;;;;;;;;;;;;;;7.93;90.60;99805.56;10255615;23;19927;-81
2022/11/01 22:04:05;;;;;;;;;;;;;;;7.88;90.89;99807.19;10255183;23;19968;-82
2022/11/01 22:08:13;;;;;;;;;;;;;;;7.87;91.28;99798.56;10260750;23;19924;-79
2022/11/01 22:12:14;;;;;;;;;;;;;;;7.78;91.29;99801.06;10256117;23;19955;-79
2022/11/01 22:16:15;;;;;;;;;;;;;;;7.73;91.60;99809.59;10250863;23;19924;-80
2022/11/01 22:20:17;;;;;;;;;;;;;;;7.64;91.55;99800.00;10282819;23;20036;-80
2022/11/01 22:24:18;;;;;;;;;;;;;;;7.55;91.86;99798.16;10281724;23;20215;-79
2022/11/01 22:28:20;;;;;;;;;;;;;;;7.51;91.64;99808.41;10256767;23;20435;-79
2022/11/01 22:32:22;;;;;;;;;;;;;;;7.45;92.16;99804.03;10248652;23;19970;-80
2022/11/01 22:36:26;;;;;;;;;;;;;;;7.43;92.31;99805.72;10257421;23;19978;-79
2022/11/01 22:40:27;;;;;;;;;;;;;;;7.39;92.23;99806.53;10257415;23;20300;-79